Time;durP1;ratioP1;P1;durP2;ratioP2;P2;SDS_P1;SDS_P2;PMS_P1;PMS_P2;Temp;Humidity;BMP_temperature;BMP_pressure;BME280_temperature;BME280_humidity;BME280_pressure;Samples;Min_cycle;Max_cycle;Signal;HPM_P1;HPM_P2
2021/08/02 00:02:27;;;;;;;4.10;3.70;;;;;;;14.79;100.00;100039.53;5040543;28;20620;-70
2021/08/02 00:05:01;;;;;;;4.10;3.70;;;;;;;14.77;100.00;100036.16;5034509;28;20624;-69
2021/08/02 00:07:28;;;;;;;4.43;4.03;;;;;;;14.74;100.00;100042.44;5037723;28;20344;-69
2021/08/02 00:09:57;;;;;;;4.40;3.70;;;;;;;14.71;100.00;100037.34;5033584;28;20195;-69
2021/08/02 00:12:27;;;;;;;4.07;3.67;;;;;;;14.66;100.00;100043.75;5040309;28;20528;-70
2021/08/02 00:14:55;;;;;;;5.03;3.80;;;;;;;14.71;100.00;100042.59;5038130;28;20219;-69
2021/08/02 00:17:23;;;;;;;4.40;3.90;;;;;;;14.71;100.00;100047.00;5033223;28;20406;-70
2021/08/02 00:19:49;;;;;;;5.40;3.90;;;;;;;14.63;100.00;100043.91;5039688;28;20203;-69
2021/08/02 00:22:17;;;;;;;5.50;3.90;;;;;;;14.62;100.00;100040.44;5032175;28;20745;-70
2021/08/02 00:24:43;;;;;;;3.77;3.40;;;;;;;14.49;100.00;100042.84;5040199;28;20231;-69
2021/08/02 00:27:10;;;;;;;4.83;3.57;;;;;;;14.47;100.00;100039.41;5032654;28;20323;-70
2021/08/02 00:29:40;;;;;;;4.07;3.53;;;;;;;14.50;100.00;100035.81;5029398;28;20200;-69
2021/08/02 00:32:07;;;;;;;4.03;3.40;;;;;;;14.42;100.00;100032.72;5038253;28;20256;-70
2021/08/02 00:34:36;;;;;;;4.87;3.80;;;;;;;14.37;100.00;100033.81;5042498;28;20235;-68
2021/08/02 00:37:05;;;;;;;3.60;3.30;;;;;;;14.34;100.00;100038.38;5034842;28;20295;-69
2021/08/02 00:39:42;;;;;;;3.50;3.20;;;;;;;14.31;100.00;100044.59;5038265;28;20209;-70
2021/08/02 00:42:58;;;;;;;3.80;3.40;;;;;;;14.32;100.00;100045.47;5036915;28;20199;-69
2021/08/02 00:45:30;;;;;;;3.13;2.83;;;;;;;14.43;100.00;100043.13;5034974;28;20239;-70
2021/08/02 00:48:02;;;;;;;3.90;3.50;;;;;;;14.34;100.00;100033.97;5041988;28;20321;-70
2021/08/02 00:50:35;;;;;;;3.77;3.33;;;;;;;14.31;100.00;100041.16;5018083;28;20676;-69
2021/08/02 00:53:05;;;;;;;3.63;3.33;;;;;;;14.27;100.00;100044.84;5043619;28;20234;-70
2021/08/02 00:55:35;;;;;;;3.87;3.27;;;;;;;14.17;100.00;100047.06;5036755;28;20262;-69
2021/08/02 00:58:06;;;;;;;4.70;3.87;;;;;;;14.15;100.00;100059.41;5035711;28;20311;-69
2021/08/02 01:00:34;;;;;;;3.90;3.50;;;;;;;14.15;100.00;100059.41;5034224;28;20242;-69
2021/08/02 01:03:06;;;;;;;3.83;3.37;;;;;;;14.17;100.00;100062.81;5033551;28;21170;-70
2021/08/02 01:05:38;;;;;;;4.13;3.73;;;;;;;14.12;100.00;100068.28;5019967;28;20692;-69
2021/08/02 01:08:11;;;;;;;6.23;4.23;;;;;;;14.13;100.00;100062.13;5038343;28;20686;-70
2021/08/02 01:10:45;;;;;;;4.20;3.80;;;;;;;14.15;100.00;100062.88;5026555;28;20213;-69
2021/08/02 01:13:16;;;;;;;4.40;3.60;;;;;;;14.11;100.00;100076.25;5036881;28;20233;-69
2021/08/02 01:15:45;;;;;;;4.20;3.80;;;;;;;14.02;100.00;100067.91;5045297;28;20235;-70
2021/08/02 01:18:14;;;;;;;5.20;3.53;;;;;;;14.01;100.00;100074.03;5016625;28;20610;-70
2021/08/02 01:20:49;;;;;;;4.27;3.83;;;;;;;14.02;100.00;100077.53;5038954;28;20560;-69
2021/08/02 01:23:20;;;;;;;3.93;3.53;;;;;;;13.94;100.00;100083.13;5020123;28;20207;-70
2021/08/02 01:26:16;;;;;;;3.97;3.57;;;;;;;13.96;100.00;100077.81;5048597;28;20272;-69
2021/08/02 01:29:21;;;;;;;4.00;3.60;;;;;;;13.90;100.00;100080.75;5034409;28;20210;-70
2021/08/02 01:31:47;;;;;;;4.80;3.60;;;;;;;13.83;100.00;100077.59;5041284;28;20653;-69
2021/08/02 01:34:19;;;;;;;3.97;3.50;;;;;;;13.82;100.00;100083.72;5034803;28;20243;-69
2021/08/02 01:36:46;;;;;;;4.47;3.77;;;;;;;13.72;100.00;100087.72;5038791;28;20229;-70
2021/08/02 01:39:14;;;;;;;4.83;4.00;;;;;;;13.68;100.00;100087.00;5020703;28;20210;-70
2021/08/02 01:41:42;;;;;;;4.60;4.20;;;;;;;13.72;100.00;100087.72;5032922;28;20208;-68
2021/08/02 01:44:08;;;;;;;5.20;3.70;;;;;;;13.74;100.00;100088.50;5015113;28;20262;-69
2021/08/02 01:46:42;;;;;;;3.87;3.50;;;;;;;13.71;100.00;100092.09;5022605;28;20748;-69
2021/08/02 01:49:17;;;;;;;4.00;3.57;;;;;;;13.76;100.00;100089.28;5040600;28;20202;-69
2021/08/02 01:51:46;;;;;;;5.70;3.90;;;;;;;13.68;100.00;100091.41;5035443;28;20651;-69
2021/08/02 01:54:27;;;;;;;4.87;4.07;;;;;;;13.71;100.00;100091.28;5023922;28;20440;-69
2021/08/02 01:57:00;;;;;;;4.63;3.57;;;;;;;13.69;100.00;100090.50;5034785;28;20202;-69
2021/08/02 01:59:45;;;;;;;5.23;4.03;;;;;;;13.62;100.00;100082.91;5020901;28;20635;-70
2021/08/02 02:02:15;;;;;;;4.90;4.00;;;;;;;13.76;100.00;100091.91;5034226;28;20211;-69
2021/08/02 02:04:49;;;;;;;5.23;4.07;;;;;;;13.51;100.00;100095.69;5020692;28;20229;-70
2021/08/02 02:07:18;;;;;;;4.57;3.77;;;;;;;13.52;100.00;100096.53;5017012;28;20718;-69
2021/08/02 02:09:59;;;;;;;4.50;4.03;;;;;;;13.48;100.00;100100.22;5016869;28;20579;-70
2021/08/02 02:12:28;;;;;;;4.33;3.93;;;;;;;13.47;100.00;100098.50;5018960;28;20639;-69
2021/08/02 02:14:58;;;;;;;5.47;4.17;;;;;;;13.54;100.00;100087.66;5035177;28;20226;-69
2021/08/02 02:17:26;;;;;;;4.03;3.63;;;;;;;13.49;100.00;100091.41;5030307;28;20196;-69
2021/08/02 02:19:56;;;;;;;4.20;3.63;;;;;;;13.46;100.00;100095.03;5037030;28;20672;-69
2021/08/02 02:22:24;;;;;;;4.40;3.83;;;;;;;13.48;100.00;100093.19;5040630;28;20627;-70
2021/08/02 02:24:54;;;;;;;6.47;3.30;;;;;;;13.37;100.00;100100.72;5014601;28;20249;-69
2021/08/02 02:27:23;;;;;;;4.30;3.90;;;;;;;13.34;100.00;100099.06;5015861;28;20227;-70
2021/08/02 02:30:03;;;;;;;4.50;3.73;;;;;;;13.36;100.00;100101.63;5015546;28;20204;-70
2021/08/02 02:32:32;;;;;;;6.00;4.10;;;;;;;13.31;100.00;100111.41;5018276;28;20556;-70
2021/08/02 02:35:01;;;;;;;4.63;3.80;;;;;;;13.39;100.00;100104.09;5017644;28;20325;-69
2021/08/02 02:37:30;;;;;;;3.97;3.57;;;;;;;13.54;100.00;100107.75;5026992;28;20214;-70
2021/08/02 02:40:00;;;;;;;4.13;3.63;;;;;;;13.46;100.00;100108.13;5015455;28;20294;-69
2021/08/02 02:42:30;;;;;;;4.83;3.80;;;;;;;13.33;100.00;100118.34;5036400;28;20305;-69
2021/08/02 02:44:58;;;;;;;4.87;3.40;;;;;;;13.31;100.00;100120.16;5033791;28;20224;-69
2021/08/02 02:47:26;;;;;;;4.17;3.67;;;;;;;13.31;100.00;100127.13;5038051;28;20222;-69
2021/08/02 02:49:54;;;;;;;3.90;3.47;;;;;;;13.24;100.00;100123.94;5034820;28;20563;-70
2021/08/02 02:52:21;;;;;;;3.47;3.13;;;;;;;13.19;100.00;100133.75;5017589;28;20203;-70
2021/08/02 02:54:50;;;;;;;3.87;3.47;;;;;;;13.32;100.00;100136.72;5021859;28;20220;-70
2021/08/02 02:57:19;;;;;;;4.70;4.17;;;;;;;13.32;100.00;100139.34;5036784;28;20207;-70
2021/08/02 02:59:48;;;;;;;4.10;3.60;;;;;;;13.25;100.00;100134.34;5020108;28;20235;-70
2021/08/02 03:02:15;;;;;;;4.43;3.80;;;;;;;13.21;100.00;100132.78;5031925;28;20209;-70
2021/08/02 03:04:46;;;;;;;4.23;3.53;;;;;;;13.22;100.00;100141.47;5020459;28;20556;-69
2021/08/02 03:07:15;;;;;;;4.53;3.70;;;;;;;13.33;100.00;100135.78;5029751;28;20224;-70
2021/08/02 03:09:47;;;;;;;5.33;4.13;;;;;;;13.33;100.00;100138.41;5031683;28;20215;-70
2021/08/02 03:12:15;;;;;;;5.20;4.20;;;;;;;13.36;100.00;100136.50;5030666;28;20203;-70
2021/08/02 03:14:42;;;;;;;5.53;4.30;;;;;;;13.31;100.00;100140.22;5041567;28;20606;-70
2021/08/02 03:17:10;;;;;;;4.80;4.30;;;;;;;13.24;100.00;100147.50;5029416;28;20215;-70
2021/08/02 03:19:38;;;;;;;5.87;4.40;;;;;;;13.19;100.00;100146.84;5035141;28;20306;-70
2021/08/02 03:22:15;;;;;;;4.77;4.00;;;;;;;13.22;100.00;100163.25;5029625;28;20219;-70
2021/08/02 03:24:46;;;;;;;5.53;4.10;;;;;;;13.32;100.00;100162.91;5030949;28;20324;-70
2021/08/02 03:27:24;;;;;;;5.30;3.90;;;;;;;13.21;100.00;100171.22;5032540;28;20269;-70
2021/08/02 03:29:54;;;;;;;4.30;3.90;;;;;;;13.28;100.00;100164.78;5027485;28;20210;-69
2021/08/02 03:32:25;;;;;;;5.20;3.67;;;;;;;13.26;100.00;100171.81;5036722;28;20220;-70
2021/08/02 03:34:57;;;;;;;4.33;3.77;;;;;;;13.31;100.00;100176.88;5034477;28;20278;-69
2021/08/02 03:37:27;;;;;;;3.50;3.20;;;;;;;13.34;100.00;100180.22;5030836;28;20194;-70
2021/08/02 03:39:55;;;;;;;4.80;3.90;;;;;;;13.37;100.00;100177.47;5030749;28;20296;-70
2021/08/02 03:42:23;;;;;;;5.43;4.40;;;;;;;13.45;100.00;100177.13;5032483;28;20206;-70
2021/08/02 03:44:50;;;;;;;4.60;3.80;;;;;;;13.45;100.00;100179.75;5032348;28;20839;-69
2021/08/02 03:47:17;;;;;;;4.70;4.03;;;;;;;13.47;100.00;100185.75;5036175;28;20670;-70
2021/08/02 03:49:45;;;;;;;4.90;3.67;;;;;;;13.55;100.00;100193.28;5032795;28;20693;-69
2021/08/02 03:52:12;;;;;;;4.87;4.13;;;;;;;13.50;100.00;100182.16;5040842;28;20562;-70
2021/08/02 03:54:39;;;;;;;4.70;4.00;;;;;;;13.52;100.00;100196.03;5033555;28;20222;-70
2021/08/02 03:57:06;;;;;;;4.00;3.50;;;;;;;13.69;100.00;100190.88;5042307;28;20994;-70
2021/08/02 03:59:33;;;;;;;5.43;3.70;;;;;;;13.61;100.00;100204.34;5032716;28;20217;-70
2021/08/02 04:02:00;;;;;;;5.13;4.10;;;;;;;13.58;100.00;100199.25;5035322;28;20639;-70
2021/08/02 04:04:26;;;;;;;4.13;3.73;;;;;;;13.65;100.00;100205.06;5033953;28;20284;-70
2021/08/02 04:06:54;;;;;;;5.73;3.87;;;;;;;13.67;100.00;100213.69;5040049;28;20264;-70
2021/08/02 04:09:21;;;;;;;4.30;3.60;;;;;;;13.68;100.00;100209.28;5036435;28;20249;-70
2021/08/02 04:11:47;;;;;;;4.47;3.67;;;;;;;13.69;100.00;100213.63;5041340;28;20206;-70
2021/08/02 04:14:14;;;;;;;4.67;3.93;;;;;;;13.72;100.00;100216.06;5039700;28;20314;-69
2021/08/02 04:16:42;;;;;;;4.57;3.50;;;;;;;13.80;100.00;100214.81;5040243;28;20214;-69
2021/08/02 04:19:08;;;;;;;6.23;3.70;;;;;;;13.79;100.00;100223.59;5039325;28;20203;-70
2021/08/02 04:21:35;;;;;;;4.17;3.70;;;;;;;13.78;100.00;100221.91;5040156;28;20215;-70
2021/08/02 04:24:03;;;;;;;4.47;3.73;;;;;;;13.75;100.00;100222.03;5041507;28;20226;-69
2021/08/02 04:26:30;;;;;;;4.67;3.40;;;;;;;13.78;100.00;100231.53;5036371;28;20313;-70
2021/08/02 04:28:57;;;;;;;6.60;3.80;;;;;;;13.81;100.00;100227.00;5042747;28;20205;-68
2021/08/02 04:31:24;;;;;;;4.53;3.63;;;;;;;13.87;100.00;100241.59;5037321;28;20348;-70
2021/08/02 04:33:51;;;;;;;3.97;3.57;;;;;;;13.91;100.00;100240.53;5037869;28;20509;-70
2021/08/02 04:36:18;;;;;;;4.03;3.60;;;;;;;13.88;100.00;100240.69;5036154;28;20235;-68
2021/08/02 04:38:44;;;;;;;3.60;3.30;;;;;;;13.98;100.00;100255.06;5036240;28;20669;-70
2021/08/02 04:41:12;;;;;;;5.37;4.03;;;;;;;13.99;100.00;100251.50;5036762;28;20210;-70
2021/08/02 04:43:39;;;;;;;5.50;4.13;;;;;;;14.06;100.00;100244.22;5043200;28;20795;-70
2021/08/02 04:46:06;;;;;;;4.27;3.63;;;;;;;14.13;100.00;100255.28;5034347;28;20589;-70
2021/08/02 04:48:32;;;;;;;7.73;4.10;;;;;;;14.16;100.00;100260.38;5042020;28;20612;-70
2021/08/02 04:50:59;;;;;;;4.97;3.93;;;;;;;14.20;100.00;100259.31;5035556;28;20308;-71
2021/08/02 04:53:25;;;;;;;5.40;3.97;;;;;;;14.25;100.00;100262.56;5042506;28;20203;-70
2021/08/02 04:55:52;;;;;;;4.93;3.73;;;;;;;14.25;100.00;100264.31;5035808;28;20212;-69
2021/08/02 04:58:19;;;;;;;4.60;4.10;;;;;;;14.27;100.00;100265.09;5045831;28;20208;-70
2021/08/02 05:00:46;;;;;;;4.27;3.80;;;;;;;14.29;100.00;100265.88;5034957;28;20750;-70
2021/08/02 05:03:12;;;;;;;4.40;4.00;;;;;;;14.33;100.00;100270.03;5036683;28;20218;-70
2021/08/02 05:05:39;;;;;;;5.33;4.10;;;;;;;14.33;100.00;100270.03;5035948;28;20314;-70
2021/08/02 05:08:05;;;;;;;4.63;4.00;;;;;;;14.41;100.00;100277.56;5038737;28;20220;-69
2021/08/02 05:10:32;;;;;;;4.23;3.83;;;;;;;14.42;100.00;100272.22;5033653;28;20211;-70
2021/08/02 05:12:58;;;;;;;4.70;3.90;;;;;;;14.48;100.00;100276.34;5040141;28;20306;-69
2021/08/02 05:15:26;;;;;;;4.30;3.73;;;;;;;14.52;100.00;100275.28;5035565;28;20231;-70
2021/08/02 05:17:52;;;;;;;4.00;3.60;;;;;;;14.56;100.00;100282.94;5029717;28;20475;-70
2021/08/02 05:20:19;;;;;;;4.90;3.97;;;;;;;14.58;100.00;100280.25;5033914;28;20202;-70
2021/08/02 05:22:46;;;;;;;3.97;3.60;;;;;;;14.65;100.00;100284.28;5038899;28;20605;-70
2021/08/02 05:25:13;;;;;;;3.93;3.53;;;;;;;14.69;100.00;100280.59;5034580;28;20216;-71
2021/08/02 05:27:39;;;;;;;4.30;3.90;;;;;;;14.67;100.00;100289.44;5033267;28;20327;-70
2021/08/02 05:30:07;;;;;;;4.40;3.83;;;;;;;14.61;100.00;100292.38;5036325;28;20202;-70
2021/08/02 05:32:34;;;;;;;4.13;3.73;;;;;;;14.64;100.00;100295.69;5033839;28;20212;-70
2021/08/02 05:35:01;;;;;;;4.30;3.90;;;;;;;14.71;100.00;100294.47;5051878;22;20227;-74
2021/08/02 05:37:27;;;;;;;5.70;4.70;;;;;;;14.82;100.00;100287.88;5042153;28;20202;-74
2021/08/02 05:39:54;;;;;;;5.77;4.23;;;;;;;14.96;100.00;100298.53;5034642;28;20236;-74
2021/08/02 05:42:20;;;;;;;7.27;4.53;;;;;;;15.02;100.00;100293.00;5030463;28;20229;-73
2021/08/02 05:44:46;;;;;;;5.10;3.67;;;;;;;15.07;100.00;100296.19;5000662;28;20660;-74
2021/08/02 05:47:14;;;;;;;4.40;4.00;;;;;;;15.06;100.00;100297.16;5020501;28;20214;-74
2021/08/02 05:49:42;;;;;;;4.63;4.10;;;;;;;15.06;100.00;100294.53;5019379;28;20213;-74
2021/08/02 05:52:08;;;;;;;4.90;4.10;;;;;;;15.10;100.00;100300.47;5020919;28;20236;-74
2021/08/02 05:54:35;;;;;;;5.20;4.63;;;;;;;15.18;100.00;100303.56;5021580;28;20243;-74
2021/08/02 05:57:02;;;;;;;4.90;4.27;;;;;;;15.27;100.00;100308.34;5018775;28;20593;-74
2021/08/02 05:59:28;;;;;;;5.10;3.90;;;;;;;15.32;100.00;100295.00;5023136;28;20207;-73
2021/08/02 06:01:57;;;;;;;5.47;4.40;;;;;;;15.41;100.00;100299.78;5004290;28;20238;-74
2021/08/02 06:04:23;;;;;;;5.90;4.30;;;;;;;15.40;100.00;100300.69;5025268;28;20207;-73
2021/08/02 06:06:53;;;;;;;5.10;4.37;;;;;;;15.52;100.00;100297.41;5017595;28;20207;-74
2021/08/02 06:09:20;;;;;;;6.27;4.80;;;;;;;15.58;100.00;100293.63;5023360;28;20209;-74
2021/08/02 06:11:46;;;;;;;5.40;4.40;;;;;;;15.64;100.00;100297.72;5022994;28;20230;-73
2021/08/02 06:14:13;;;;;;;5.60;4.20;;;;;;;15.72;100.00;100300.78;5024218;28;20205;-72
2021/08/02 06:16:39;;;;;;;4.90;3.67;;;;;;;15.82;99.97;100299.41;5022402;28;20214;-73
2021/08/02 06:19:05;;;;;;;3.73;3.37;;;;;;;15.98;100.00;100299.44;5022448;28;20209;-74
2021/08/02 06:21:32;;;;;;;4.93;3.67;;;;;;;15.99;96.64;100308.16;5022988;28;20593;-74
2021/08/02 06:24:00;;;;;;;4.17;3.43;;;;;;;16.01;95.20;100309.78;5015069;28;20216;-75
2021/08/02 06:26:26;;;;;;;3.83;3.37;;;;;;;16.02;96.27;100308.88;5020009;28;20326;-74
2021/08/02 06:28:52;;;;;;;5.83;3.47;;;;;;;15.97;95.59;100310.03;5018737;28;20249;-75
2021/08/02 06:31:20;;;;;;;4.13;3.17;;;;;;;15.96;95.95;100310.97;5002873;28;20228;-73
2021/08/02 06:33:47;;;;;;;4.03;3.63;;;;;;;15.83;95.00;100318.66;5018285;28;20819;-73
2021/08/02 06:36:13;;;;;;;4.67;3.23;;;;;;;15.80;95.30;100322.28;5024371;28;20227;-73
2021/08/02 06:38:39;;;;;;;8.07;3.40;;;;;;;15.71;94.49;100330.63;5015978;28;20200;-74
2021/08/02 06:41:07;;;;;;;3.57;2.63;;;;;;;15.76;95.09;100319.91;5022493;28;20306;-72
2021/08/02 06:43:34;;;;;;;3.17;2.70;;;;;;;15.74;93.08;100330.47;5016552;28;20211;-73
2021/08/02 06:46:00;;;;;;;2.80;2.40;;;;;;;15.63;90.78;100332.81;5021168;28;20226;-74
2021/08/02 06:48:27;;;;;;;3.17;2.43;;;;;;;15.70;92.96;100324.50;5019130;28;20315;-73
2021/08/02 06:50:53;;;;;;;3.97;2.30;;;;;;;15.63;92.83;100336.28;5018143;28;20192;-74
2021/08/02 06:53:20;;;;;;;2.17;1.97;;;;;;;15.55;94.81;100340.22;5021457;28;20203;-74
2021/08/02 06:55:47;;;;;;;3.67;2.40;;;;;;;15.51;96.92;100334.28;5020450;28;20244;-72
2021/08/02 06:58:16;;;;;;;3.90;2.30;;;;;;;15.53;97.07;100322.78;5016359;28;20247;-74
2021/08/02 07:00:42;;;;;;;4.33;2.40;;;;;;;15.61;99.05;100322.38;5025735;28;20759;-73
2021/08/02 07:03:09;;;;;;;2.80;2.50;;;;;;;15.71;99.22;100328.00;5001090;28;20222;-74
2021/08/02 07:05:36;;;;;;;3.63;2.63;;;;;;;15.87;99.22;100334.19;5020183;28;20717;-75
2021/08/02 07:08:02;;;;;;;4.40;2.50;;;;;;;16.07;96.87;100330.47;5021516;28;20218;-74
2021/08/02 07:10:28;;;;;;;2.80;2.10;;;;;;;16.32;95.93;100339.66;5020718;28;20202;-74
2021/08/02 07:12:55;;;;;;;2.40;2.10;;;;;;;16.41;92.62;100340.94;5016831;28;20454;-73
2021/08/02 07:15:22;;;;;;;4.97;2.23;;;;;;;16.46;92.57;100352.94;5019890;28;20216;-72
2021/08/02 07:17:49;;;;;;;1.90;1.70;;;;;;;16.43;90.16;100353.09;5002869;28;20522;-75
2021/08/02 07:20:15;;;;;;;2.23;1.83;;;;;;;16.53;90.34;100352.59;5018691;28;20230;-73
2021/08/02 07:22:42;;;;;;;1.70;1.60;;;;;;;16.70;89.13;100356.94;5018673;28;20220;-74
2021/08/02 07:25:09;;;;;;;3.03;1.90;;;;;;;16.84;88.47;100359.66;5016459;28;20687;-74
2021/08/02 07:27:38;;;;;;;3.40;2.20;;;;;;;17.02;88.22;100361.22;5024741;28;20684;-74
2021/08/02 07:30:06;;;;;;;2.00;1.80;;;;;;;17.16;85.44;100367.50;5015374;28;20298;-74
2021/08/02 07:32:33;;;;;;;2.43;1.80;;;;;;;17.28;87.21;100356.25;5020798;28;20226;-74
2021/08/02 07:35:00;;;;;;;2.67;1.70;;;;;;;17.38;83.50;100362.69;5018553;28;20591;-74
2021/08/02 07:37:26;;;;;;;1.50;1.30;;;;;;;17.36;82.27;100361.94;5021519;28;20511;-74
2021/08/02 07:39:52;;;;;;;3.40;1.73;;;;;;;17.48;83.48;100364.78;5018653;28;20204;-73
2021/08/02 07:42:19;;;;;;;2.00;1.57;;;;;;;17.57;83.78;100375.63;5022363;28;20220;-74
2021/08/02 07:44:45;;;;;;;3.73;1.77;;;;;;;17.48;80.03;100372.69;5021711;28;20203;-74
2021/08/02 07:47:12;;;;;;;3.33;1.80;;;;;;;17.72;82.54;100365.94;5006787;28;20291;-74
2021/08/02 07:49:39;;;;;;;2.30;1.33;;;;;;;17.94;81.11;100368.19;5019895;28;20754;-73
2021/08/02 07:52:07;;;;;;;2.20;1.50;;;;;;;18.15;77.55;100381.84;5021535;28;20227;-74
2021/08/02 07:54:33;;;;;;;2.13;1.67;;;;;;;18.32;80.82;100374.66;5020366;28;20216;-73
2021/08/02 07:56:59;;;;;;;2.23;1.50;;;;;;;18.39;78.74;100373.34;5020165;28;20236;-73
2021/08/02 07:59:26;;;;;;;2.57;1.57;;;;;;;18.39;79.01;100385.69;5018574;28;20200;-75
2021/08/02 08:01:52;;;;;;;1.70;1.40;;;;;;;18.25;76.84;100384.75;5003651;28;20235;-74
2021/08/02 08:04:18;;;;;;;1.70;1.60;;;;;;;18.20;77.31;100384.19;5019392;28;20207;-74
2021/08/02 08:06:46;;;;;;;2.73;1.53;;;;;;;18.19;77.19;100390.41;5020178;28;20207;-74
2021/08/02 08:09:12;;;;;;;1.67;1.40;;;;;;;18.28;77.87;100389.00;5018468;28;20224;-75
2021/08/02 08:11:39;;;;;;;2.00;1.40;;;;;;;18.32;75.60;100391.34;5016870;28;20613;-75
2021/08/02 08:14:05;;;;;;;2.90;1.60;;;;;;;18.27;75.75;100393.41;5018854;28;20204;-74
2021/08/02 08:16:32;;;;;;;1.93;1.40;;;;;;;18.24;73.44;100396.25;5018571;28;20208;-75
2021/08/02 08:18:58;;;;;;;1.47;1.37;;;;;;;18.24;74.61;100393.63;5023093;28;20679;-74
2021/08/02 08:21:24;;;;;;;2.10;1.60;;;;;;;18.32;75.46;100399.25;5019238;28;20343;-75
2021/08/02 08:23:52;;;;;;;1.93;1.50;;;;;;;18.47;74.84;100392.19;5002154;28;20577;-74
2021/08/02 08:26:20;;;;;;;1.77;1.40;;;;;;;18.58;74.48;100393.31;5018748;28;20478;-74
2021/08/02 08:28:46;;;;;;;1.83;1.40;;;;;;;18.79;73.84;100394.56;5023107;28;20228;-75
2021/08/02 08:31:13;;;;;;;1.23;1.10;;;;;;;19.04;71.34;100407.06;5016814;28;20750;-74
2021/08/02 08:33:42;;;;;;;1.63;1.53;;;;;;;19.21;69.69;100399.84;5024395;28;20208;-74
2021/08/02 08:36:11;;;;;;;2.77;1.43;;;;;;;19.03;70.45;100404.53;5018700;28;20216;-74
2021/08/02 08:38:37;;;;;;;1.97;1.53;;;;;;;18.87;70.47;100400.25;5022217;28;20290;-74
2021/08/02 08:41:05;;;;;;;2.90;1.73;;;;;;;18.71;71.05;100405.63;5019472;28;20517;-74
2021/08/02 08:43:32;;;;;;;2.83;1.37;;;;;;;18.50;70.25;100404.34;5001671;28;20208;-74
2021/08/02 08:45:58;;;;;;;2.83;1.90;;;;;;;18.24;71.62;100406.81;5019560;28;20215;-74
2021/08/02 08:48:26;;;;;;;3.00;1.37;;;;;;;18.34;73.00;100399.16;5019714;28;20235;-73
2021/08/02 08:50:53;;;;;;;3.43;1.80;;;;;;;18.34;74.54;100397.38;5014435;28;20216;-74
2021/08/02 08:53:21;;;;;;;2.17;1.57;;;;;;;18.37;73.15;100403.41;5006308;28;20214;-75
2021/08/02 08:55:48;;;;;;;1.60;1.50;;;;;;;18.49;72.67;100395.56;5017210;28;20208;-74
2021/08/02 08:58:16;;;;;;;2.53;1.53;;;;;;;18.60;72.99;100404.63;5017560;28;20372;-74
2021/08/02 09:00:42;;;;;;;2.00;1.80;;;;;;;18.80;72.30;100398.88;5019859;28;20200;-74
2021/08/02 09:03:10;;;;;;;1.73;1.53;;;;;;;19.05;72.06;100400.84;5020702;28;20283;-74
2021/08/02 09:05:37;;;;;;;1.87;1.33;;;;;;;18.92;68.55;100399.94;5015197;28;20211;-74
2021/08/02 09:08:05;;;;;;;1.77;1.50;;;;;;;18.86;70.49;100400.34;5019329;28;20207;-75
2021/08/02 09:10:32;;;;;;;3.00;1.60;;;;;;;18.72;68.97;100409.13;5017431;28;20209;-74
2021/08/02 09:13:01;;;;;;;1.87;1.47;;;;;;;18.78;70.36;100397.31;5022020;28;20244;-75
2021/08/02 09:15:34;;;;;;;1.40;1.30;;;;;;;18.74;68.25;100407.22;5023022;28;20543;-73
2021/08/02 09:18:01;;;;;;;2.47;1.50;;;;;;;18.63;68.44;100410.53;4998586;28;20654;-74
2021/08/02 09:20:29;;;;;;;3.13;1.67;;;;;;;18.55;70.49;100408.38;5023918;28;20599;-74
2021/08/02 09:23:05;;;;;;;1.60;1.40;;;;;;;18.37;69.16;100414.81;5013095;28;20287;-72
2021/08/02 09:25:32;;;;;;;1.77;1.30;;;;;;;18.32;69.51;100403.69;5013561;28;20234;-75
2021/08/02 09:27:59;;;;;;;2.33;1.47;;;;;;;18.22;68.65;100411.31;5016651;28;20433;-73
2021/08/02 09:30:27;;;;;;;1.30;1.20;;;;;;;18.14;69.24;100413.59;5021070;28;20204;-74
2021/08/02 09:32:56;;;;;;;1.47;1.20;;;;;;;18.00;67.59;100409.16;5016590;28;20736;-74
2021/08/02 09:35:27;;;;;;;1.37;1.27;;;;;;;18.33;71.44;100408.03;5014741;28;20312;-74
2021/08/02 09:37:55;;;;;;;1.50;1.40;;;;;;;18.75;66.19;100411.56;5013984;28;20311;-74
2021/08/02 09:40:21;;;;;;;2.77;1.47;;;;;;;19.03;65.01;100413.31;5014099;28;20286;-74
2021/08/02 09:42:54;;;;;;;2.00;1.40;;;;;;;19.30;64.64;100407.16;5016185;28;20306;-75
2021/08/02 09:45:20;;;;;;;2.10;1.40;;;;;;;19.68;63.96;100414.31;5002917;28;20554;-74
2021/08/02 09:47:49;;;;;;;1.40;1.30;;;;;;;19.83;62.47;100408.00;5012033;28;20204;-74
2021/08/02 09:50:27;;;;;;;1.93;1.40;;;;;;;19.88;62.35;100407.72;5014136;28;20232;-74
2021/08/02 09:52:54;;;;;;;1.87;1.17;;;;;;;19.96;65.03;100401.88;5018585;28;20227;-74
2021/08/02 09:55:21;;;;;;;1.60;1.50;;;;;;;19.78;62.74;100404.00;5014787;28;20220;-74
2021/08/02 09:57:50;;;;;;;2.03;1.43;;;;;;;19.71;61.73;100413.28;5014508;28;20292;-74
2021/08/02 10:00:18;;;;;;;1.30;1.20;;;;;;;19.80;59.13;100407.38;5014939;28;20204;-74
2021/08/02 10:02:46;;;;;;;1.67;1.20;;;;;;;19.94;58.19;100417.03;5022066;28;20688;-74
2021/08/02 10:05:14;;;;;;;2.77;1.10;;;;;;;20.19;57.34;100416.16;5021803;28;20208;-74
2021/08/02 10:07:43;;;;;;;1.70;1.10;;;;;;;20.36;57.46;100409.69;5021894;28;20671;-74
2021/08/02 10:10:11;;;;;;;1.57;0.97;;;;;;;20.51;55.08;100415.69;5013955;28;20718;-75
2021/08/02 10:12:40;;;;;;;2.27;1.10;;;;;;;20.59;56.49;100408.88;5023227;28;20661;-72
2021/08/02 10:15:07;;;;;;;1.20;1.10;;;;;;;20.51;57.15;100407.75;5017017;28;20207;-73
2021/08/02 10:17:35;;;;;;;1.70;1.10;;;;;;;20.92;57.01;100403.97;5015088;28;20204;-74
2021/08/02 10:20:04;;;;;;;1.27;1.07;;;;;;;21.17;56.37;100403.84;5009480;28;20965;-74
2021/08/02 10:22:31;;;;;;;1.27;1.07;;;;;;;21.48;54.71;100408.72;5016246;28;20334;-74
2021/08/02 10:24:58;;;;;;;2.00;0.90;;;;;;;21.34;52.29;100422.97;5013583;28;20445;-73
2021/08/02 10:27:27;;;;;;;1.10;1.00;;;;;;;21.30;52.98;100418.81;5013621;28;20207;-72
2021/08/02 10:29:53;;;;;;;1.10;1.00;;;;;;;21.49;54.32;100424.47;5011439;28;20220;-73
2021/08/02 10:32:23;;;;;;;1.23;0.90;;;;;;;21.26;52.66;100422.69;5014807;28;20318;-72
2021/08/02 10:34:50;;;;;;;1.17;0.90;;;;;;;20.95;53.93;100431.09;5012323;28;20639;-73
2021/08/02 10:37:29;;;;;;;2.57;0.73;;;;;;;20.81;53.87;100439.19;5019863;28;20212;-74
2021/08/02 10:40:04;;;;;;;1.30;0.90;;;;;;;20.97;54.70;100436.28;5013106;28;20208;-73
2021/08/02 10:42:30;;;;;;;1.10;0.87;;;;;;;20.95;49.13;100440.84;5017311;28;20228;-74
2021/08/02 10:44:58;;;;;;;0.80;0.70;;;;;;;20.74;48.87;100441.44;5016680;28;20206;-73
2021/08/02 10:47:36;;;;;;;0.80;0.80;;;;;;;20.84;49.52;100433.66;4999848;28;20263;-74
2021/08/02 10:50:03;;;;;;;1.00;0.70;;;;;;;20.90;48.83;100438.53;5021456;28;20293;-74
2021/08/02 10:52:31;;;;;;;1.83;0.90;;;;;;;20.72;47.92;100440.69;5015718;28;20215;-73
2021/08/02 10:54:58;;;;;;;1.03;0.73;;;;;;;20.78;46.93;100442.91;4991591;28;20254;-73
2021/08/02 10:57:26;;;;;;;0.97;0.70;;;;;;;20.64;47.92;100452.78;5012792;28;20294;-73
2021/08/02 10:59:52;;;;;;;1.13;0.90;;;;;;;20.43;48.36;100442.72;5018947;28;20200;-74
2021/08/02 11:02:20;;;;;;;1.20;0.90;;;;;;;20.50;49.47;100436.03;5013812;28;20216;-72
2021/08/02 11:04:53;;;;;;;1.60;0.83;;;;;;;20.39;50.47;100434.16;5018578;28;20216;-73
2021/08/02 11:07:21;;;;;;;1.83;0.80;;;;;;;20.39;51.49;100431.50;5000297;28;20206;-72
2021/08/02 11:09:47;;;;;;;1.47;0.80;;;;;;;20.28;50.49;100427.91;5016102;28;20225;-73
2021/08/02 11:12:14;;;;;;;0.90;0.90;;;;;;;20.19;50.55;100432.91;5015420;28;20713;-73
2021/08/02 11:14:50;;;;;;;1.23;0.93;;;;;;;20.27;50.97;100423.59;5001588;28;20203;-73
2021/08/02 11:17:17;;;;;;;1.20;0.90;;;;;;;20.60;51.38;100430.94;5017173;28;20211;-73
2021/08/02 11:19:44;;;;;;;0.80;0.80;;;;;;;20.62;50.49;100429.06;5017919;28;20563;-72
2021/08/02 11:22:11;;;;;;;0.73;0.70;;;;;;;20.36;51.68;100421.13;5016935;28;20236;-74
2021/08/02 11:24:39;;;;;;;1.27;0.90;;;;;;;20.28;51.76;100426.13;5014195;28;20464;-73
2021/08/02 11:27:08;;;;;;;1.17;0.97;;;;;;;20.40;51.94;100425.25;5016024;28;20557;-72
2021/08/02 11:29:37;;;;;;;0.70;0.70;;;;;;;20.38;49.81;100427.16;5014226;28;20216;-74